sensor_id;sensor_type;location;lat;lon;timestamp;temperature;humidity
74873;HTU21D;68776;44.762;37.698;2023-08-17T00:00:47;26.52;46.62
74873;HTU21D;68776;44.762;37.698;2023-08-17T00:01:48;26.51;46.60
74873;HTU21D;68776;44.762;37.698;2023-08-17T00:02:49;26.52;46.60
74873;HTU21D;68776;44.762;37.698;2023-08-17T00:03:50;26.53;46.58
74873;HTU21D;68776;44.762;37.698;2023-08-17T00:04:51;26.52;46.58
74873;HTU21D;68776;44.762;37.698;2023-08-17T00:05:52;26.52;46.54
74873;HTU21D;68776;44.762;37.698;2023-08-17T00:06:53;26.53;46.53
74873;HTU21D;68776;44.762;37.698;2023-08-17T00:07:54;26.53;46.54
74873;HTU21D;68776;44.762;37.698;2023-08-17T00:08:55;26.52;46.55
74873;HTU21D;68776;44.762;37.698;2023-08-17T00:09:56;26.51;46.55
74873;HTU21D;68776;44.762;37.698;2023-08-17T00:10:57;26.48;46.64
74873;HTU21D;68776;44.762;37.698;2023-08-17T00:11:58;26.45;46.68
74873;HTU21D;68776;44.762;37.698;2023-08-17T00:12:59;26.45;46.71
74873;HTU21D;68776;44.762;37.698;2023-08-17T00:14:00;26.42;46.73
74873;HTU21D;68776;44.762;37.698;2023-08-17T00:15:01;26.41;46.75
74873;HTU21D;68776;44.762;37.698;2023-08-17T00:16:02;26.40;46.73
74873;HTU21D;68776;44.762;37.698;2023-08-17T00:17:03;26.39;46.75
74873;HTU21D;68776;44.762;37.698;2023-08-17T00:18:04;26.37;46.80
74873;HTU21D;68776;44.762;37.698;2023-08-17T00:19:05;26.37;46.86
74873;HTU21D;68776;44.762;37.698;2023-08-17T00:20:07;26.34;46.89
74873;HTU21D;68776;44.762;37.698;2023-08-17T00:21:10;26.34;46.93
74873;HTU21D;68776;44.762;37.698;2023-08-17T00:22:11;26.30;46.98
74873;HTU21D;68776;44.762;37.698;2023-08-17T00:23:12;26.27;47.07
74873;HTU21D;68776;44.762;37.698;2023-08-17T00:24:13;26.24;47.13
74873;HTU21D;68776;44.762;37.698;2023-08-17T00:25:14;26.22;47.17
74873;HTU21D;68776;44.762;37.698;2023-08-17T00:26:15;26.20;47.18
74873;HTU21D;68776;44.762;37.698;2023-08-17T00:27:16;26.19;47.22
74873;HTU21D;68776;44.762;37.698;2023-08-17T00:28:17;26.17;47.26
74873;HTU21D;68776;44.762;37.698;2023-08-17T00:29:18;26.15;47.34
74873;HTU21D;68776;44.762;37.698;2023-08-17T00:30:19;26.13;47.38
74873;HTU21D;68776;44.762;37.698;2023-08-17T00:31:20;26.11;47.46
74873;HTU21D;68776;44.762;37.698;2023-08-17T00:32:22;26.08;47.47
74873;HTU21D;68776;44.762;37.698;2023-08-17T00:33:23;26.05;47.54
74873;HTU21D;68776;44.762;37.698;2023-08-17T00:34:24;26.06;47.51
74873;HTU21D;68776;44.762;37.698;2023-08-17T00:35:25;26.03;47.60
74873;HTU21D;68776;44.762;37.698;2023-08-17T00:36:26;25.98;47.67
74873;HTU21D;68776;44.762;37.698;2023-08-17T00:37:29;25.97;47.72
74873;HTU21D;68776;44.762;37.698;2023-08-17T00:38:31;25.96;47.76
74873;HTU21D;68776;44.762;37.698;2023-08-17T00:39:32;25.96;47.77
74873;HTU21D;68776;44.762;37.698;2023-08-17T00:40:33;25.95;47.79
74873;HTU21D;68776;44.762;37.698;2023-08-17T00:41:35;25.92;47.86
74873;HTU21D;68776;44.762;37.698;2023-08-17T00:42:35;25.92;47.88
74873;HTU21D;68776;44.762;37.698;2023-08-17T00:43:37;25.89;47.93
74873;HTU21D;68776;44.762;37.698;2023-08-17T00:44:38;25.87;47.98
74873;HTU21D;68776;44.762;37.698;2023-08-17T00:45:40;25.84;48.04
74873;HTU21D;68776;44.762;37.698;2023-08-17T00:46:41;25.83;48.08
74873;HTU21D;68776;44.762;37.698;2023-08-17T00:47:42;25.81;48.12
74873;HTU21D;68776;44.762;37.698;2023-08-17T00:48:43;25.79;48.16
74873;HTU21D;68776;44.762;37.698;2023-08-17T00:49:44;25.78;48.19
74873;HTU21D;68776;44.762;37.698;2023-08-17T00:50:47;25.78;48.22
74873;HTU21D;68776;44.762;37.698;2023-08-17T00:51:49;25.76;48.24
74873;HTU21D;68776;44.762;37.698;2023-08-17T00:52:52;25.75;48.28
74873;HTU21D;68776;44.762;37.698;2023-08-17T00:53:57;25.75;48.31
74873;HTU21D;68776;44.762;37.698;2023-08-17T00:55:00;25.75;48.33
74873;HTU21D;68776;44.762;37.698;2023-08-17T00:56:02;25.75;48.32
74873;HTU21D;68776;44.762;37.698;2023-08-17T00:57:03;25.76;48.31
74873;HTU21D;68776;44.762;37.698;2023-08-17T00:58:07;25.73;48.36
74873;HTU21D;68776;44.762;37.698;2023-08-17T00:59:08;25.71;48.40
74873;HTU21D;68776;44.762;37.698;2023-08-17T01:00:11;25.69;48.44
74873;HTU21D;68776;44.762;37.698;2023-08-17T01:01:13;25.68;48.48
74873;HTU21D;68776;44.762;37.698;2023-08-17T01:02:14;25.66;48.50
74873;HTU21D;68776;44.762;37.698;2023-08-17T01:03:16;25.65;48.53
74873;HTU21D;68776;44.762;37.698;2023-08-17T01:04:19;25.65;48.55
74873;HTU21D;68776;44.762;37.698;2023-08-17T01:05:21;25.64;48.54
74873;HTU21D;68776;44.762;37.698;2023-08-17T01:06:22;25.63;48.60
74873;HTU21D;68776;44.762;37.698;2023-08-17T01:07:23;25.60;48.63
74873;HTU21D;68776;44.762;37.698;2023-08-17T01:08:24;25.58;48.68
74873;HTU21D;68776;44.762;37.698;2023-08-17T01:09:26;25.53;48.75
74873;HTU21D;68776;44.762;37.698;2023-08-17T01:10:55;25.49;48.81
74873;HTU21D;68776;44.762;37.698;2023-08-17T01:12:13;25.46;48.87
74873;HTU21D;68776;44.762;37.698;2023-08-17T01:13:31;25.44;48.93
74873;HTU21D;68776;44.762;37.698;2023-08-17T01:16:15;25.40;48.92
74873;HTU21D;68776;44.762;37.698;2023-08-17T01:17:29;25.42;48.92
74873;HTU21D;68776;44.762;37.698;2023-08-17T01:18:35;25.42;48.92
74873;HTU21D;68776;44.762;37.698;2023-08-17T01:19:38;25.43;48.92
74873;HTU21D;68776;44.762;37.698;2023-08-17T01:20:40;25.43;48.92
74873;HTU21D;68776;44.762;37.698;2023-08-17T01:21:43;25.38;48.95
74873;HTU21D;68776;44.762;37.698;2023-08-17T01:22:52;25.36;49.02
74873;HTU21D;68776;44.762;37.698;2023-08-17T01:23:58;25.35;48.80
74873;HTU21D;68776;44.762;37.698;2023-08-17T01:25:01;25.35;48.63
74873;HTU21D;68776;44.762;37.698;2023-08-17T01:26:02;25.32;48.53
74873;HTU21D;68776;44.762;37.698;2023-08-17T01:27:03;25.30;48.43
74873;HTU21D;68776;44.762;37.698;2023-08-17T01:28:05;25.27;48.31
74873;HTU21D;68776;44.762;37.698;2023-08-17T01:29:06;25.27;48.21
74873;HTU21D;68776;44.762;37.698;2023-08-17T01:30:11;25.23;48.14
74873;HTU21D;68776;44.762;37.698;2023-08-17T01:31:17;25.20;48.06
74873;HTU21D;68776;44.762;37.698;2023-08-17T01:33:40;25.17;47.87
74873;HTU21D;68776;44.762;37.698;2023-08-17T01:35:00;25.13;47.76
74873;HTU21D;68776;44.762;37.698;2023-08-17T01:36:07;25.07;47.67
74873;HTU21D;68776;44.762;37.698;2023-08-17T01:37:11;25.02;47.60
74873;HTU21D;68776;44.762;37.698;2023-08-17T01:38:17;24.95;47.56
74873;HTU21D;68776;44.762;37.698;2023-08-17T01:39:19;24.91;47.57
74873;HTU21D;68776;44.762;37.698;2023-08-17T01:40:25;24.84;47.54
74873;HTU21D;68776;44.762;37.698;2023-08-17T01:41:27;24.79;47.51
74873;HTU21D;68776;44.762;37.698;2023-08-17T01:42:28;24.76;47.47
74873;HTU21D;68776;44.762;37.698;2023-08-17T01:43:29;24.72;47.44
74873;HTU21D;68776;44.762;37.698;2023-08-17T01:44:30;24.68;47.38
74873;HTU21D;68776;44.762;37.698;2023-08-17T01:45:31;24.64;47.36
74873;HTU21D;68776;44.762;37.698;2023-08-17T01:46:32;24.61;47.31
74873;HTU21D;68776;44.762;37.698;2023-08-17T01:47:35;24.57;47.73
74873;HTU21D;68776;44.762;37.698;2023-08-17T01:48:36;24.56;47.73
74873;HTU21D;68776;44.762;37.698;2023-08-17T01:49:38;24.54;48.18
74873;HTU21D;68776;44.762;37.698;2023-08-17T01:50:40;24.54;48.12
74873;HTU21D;68776;44.762;37.698;2023-08-17T01:51:41;24.53;48.50
74873;HTU21D;68776;44.762;37.698;2023-08-17T01:52:42;24.51;48.44
74873;HTU21D;68776;44.762;37.698;2023-08-17T01:53:43;24.50;48.36
74873;HTU21D;68776;44.762;37.698;2023-08-17T01:54:44;24.50;48.30
74873;HTU21D;68776;44.762;37.698;2023-08-17T01:55:47;24.53;48.24
74873;HTU21D;68776;44.762;37.698;2023-08-17T01:56:48;24.50;48.56
74873;HTU21D;68776;44.762;37.698;2023-08-17T01:57:49;24.50;48.89
74873;HTU21D;68776;44.762;37.698;2023-08-17T01:58:50;24.51;48.74
74873;HTU21D;68776;44.762;37.698;2023-08-17T01:59:51;24.53;48.54
74873;HTU21D;68776;44.762;37.698;2023-08-17T02:00:52;24.54;48.40
74873;HTU21D;68776;44.762;37.698;2023-08-17T02:01:53;24.50;48.37
74873;HTU21D;68776;44.762;37.698;2023-08-17T02:02:53;24.49;48.34
74873;HTU21D;68776;44.762;37.698;2023-08-17T02:03:54;24.48;48.33
74873;HTU21D;68776;44.762;37.698;2023-08-17T02:04:55;24.48;48.31
74873;HTU21D;68776;44.762;37.698;2023-08-17T02:05:57;24.47;48.28
74873;HTU21D;68776;44.762;37.698;2023-08-17T02:06:58;24.45;48.65
74873;HTU21D;68776;44.762;37.698;2023-08-17T02:07:59;24.47;48.96
74873;HTU21D;68776;44.762;37.698;2023-08-17T02:09:02;24.48;48.84
74873;HTU21D;68776;44.762;37.698;2023-08-17T02:10:03;24.46;48.65
74873;HTU21D;68776;44.762;37.698;2023-08-17T02:11:06;24.47;48.53
74873;HTU21D;68776;44.762;37.698;2023-08-17T02:12:07;24.48;48.46
74873;HTU21D;68776;44.762;37.698;2023-08-17T02:13:09;24.53;48.31
74873;HTU21D;68776;44.762;37.698;2023-08-17T02:14:10;24.55;48.24
74873;HTU21D;68776;44.762;37.698;2023-08-17T02:15:11;24.54;48.22
74873;HTU21D;68776;44.762;37.698;2023-08-17T02:16:12;24.58;48.15
74873;HTU21D;68776;44.762;37.698;2023-08-17T02:17:13;24.59;48.09
74873;HTU21D;68776;44.762;37.698;2023-08-17T02:18:16;24.62;47.92
74873;HTU21D;68776;44.762;37.698;2023-08-17T02:19:17;24.62;47.79
74873;HTU21D;68776;44.762;37.698;2023-08-17T02:20:18;24.59;47.70
74873;HTU21D;68776;44.762;37.698;2023-08-17T02:21:19;24.59;47.65
74873;HTU21D;68776;44.762;37.698;2023-08-17T02:22:20;24.56;47.60
74873;HTU21D;68776;44.762;37.698;2023-08-17T02:23:20;24.53;47.56
74873;HTU21D;68776;44.762;37.698;2023-08-17T02:24:21;24.49;47.54
74873;HTU21D;68776;44.762;37.698;2023-08-17T02:25:23;24.47;47.53
74873;HTU21D;68776;44.762;37.698;2023-08-17T02:26:26;24.47;47.47
74873;HTU21D;68776;44.762;37.698;2023-08-17T02:27:26;24.44;47.42
74873;HTU21D;68776;44.762;37.698;2023-08-17T02:28:27;24.43;47.38
74873;HTU21D;68776;44.762;37.698;2023-08-17T02:29:28;24.36;47.39
74873;HTU21D;68776;44.762;37.698;2023-08-17T02:30:29;24.33;47.40
74873;HTU21D;68776;44.762;37.698;2023-08-17T02:31:32;24.30;47.40
74873;HTU21D;68776;44.762;37.698;2023-08-17T02:32:33;24.28;47.38
74873;HTU21D;68776;44.762;37.698;2023-08-17T02:33:34;24.25;47.32
74873;HTU21D;68776;44.762;37.698;2023-08-17T02:34:39;24.26;47.26
74873;HTU21D;68776;44.762;37.698;2023-08-17T02:35:40;24.24;47.25
74873;HTU21D;68776;44.762;37.698;2023-08-17T02:36:41;24.23;47.21
74873;HTU21D;68776;44.762;37.698;2023-08-17T02:37:42;24.20;47.18
74873;HTU21D;68776;44.762;37.698;2023-08-17T02:38:43;24.20;47.12
74873;HTU21D;68776;44.762;37.698;2023-08-17T02:39:43;24.18;47.10
74873;HTU21D;68776;44.762;37.698;2023-08-17T02:40:44;24.18;47.09
74873;HTU21D;68776;44.762;37.698;2023-08-17T02:41:45;24.16;47.05
74873;HTU21D;68776;44.762;37.698;2023-08-17T02:42:49;24.14;47.03
74873;HTU21D;68776;44.762;37.698;2023-08-17T02:43:50;24.13;47.02
74873;HTU21D;68776;44.762;37.698;2023-08-17T02:44:50;24.10;47.02
74873;HTU21D;68776;44.762;37.698;2023-08-17T02:45:51;24.09;47.01
74873;HTU21D;68776;44.762;37.698;2023-08-17T02:46:52;24.05;47.01
74873;HTU21D;68776;44.762;37.698;2023-08-17T02:47:53;24.04;46.99
74873;HTU21D;68776;44.762;37.698;2023-08-17T02:48:54;24.03;46.97
74873;HTU21D;68776;44.762;37.698;2023-08-17T02:49:54;24.01;46.96
74873;HTU21D;68776;44.762;37.698;2023-08-17T02:50:55;23.99;46.93
74873;HTU21D;68776;44.762;37.698;2023-08-17T02:51:56;24.01;46.90
74873;HTU21D;68776;44.762;37.698;2023-08-17T02:52:57;24.01;46.87
74873;HTU21D;68776;44.762;37.698;2023-08-17T02:53:58;24.00;46.82
74873;HTU21D;68776;44.762;37.698;2023-08-17T02:54:59;23.99;46.81
74873;HTU21D;68776;44.762;37.698;2023-08-17T02:56:01;24.01;46.84
74873;HTU21D;68776;44.762;37.698;2023-08-17T02:57:01;24.03;46.80
74873;HTU21D;68776;44.762;37.698;2023-08-17T02:58:03;24.05;46.79
74873;HTU21D;68776;44.762;37.698;2023-08-17T02:59:03;24.08;46.76
74873;HTU21D;68776;44.762;37.698;2023-08-17T03:00:06;24.09;46.89
74873;HTU21D;68776;44.762;37.698;2023-08-17T03:01:08;24.10;47.54
74873;HTU21D;68776;44.762;37.698;2023-08-17T03:02:09;24.14;47.50
74873;HTU21D;68776;44.762;37.698;2023-08-17T03:03:10;24.16;47.55
74873;HTU21D;68776;44.762;37.698;2023-08-17T03:04:11;24.21;47.51
74873;HTU21D;68776;44.762;37.698;2023-08-17T03:05:12;24.27;48.01
74873;HTU21D;68776;44.762;37.698;2023-08-17T03:06:13;24.32;48.38
74873;HTU21D;68776;44.762;37.698;2023-08-17T03:07:14;24.35;48.25
74873;HTU21D;68776;44.762;37.698;2023-08-17T03:08:15;24.40;47.99
74873;HTU21D;68776;44.762;37.698;2023-08-17T03:09:17;24.44;47.84
74873;HTU21D;68776;44.762;37.698;2023-08-17T03:10:18;24.46;47.79
74873;HTU21D;68776;44.762;37.698;2023-08-17T03:11:20;24.47;47.79
74873;HTU21D;68776;44.762;37.698;2023-08-17T03:12:21;24.49;47.66
74873;HTU21D;68776;44.762;37.698;2023-08-17T03:13:22;24.51;47.52
74873;HTU21D;68776;44.762;37.698;2023-08-17T03:14:23;24.51;47.46
74873;HTU21D;68776;44.762;37.698;2023-08-17T03:15:24;24.53;47.49
74873;HTU21D;68776;44.762;37.698;2023-08-17T03:16:26;24.55;47.48
74873;HTU21D;68776;44.762;37.698;2023-08-17T03:17:27;24.57;47.49
74873;HTU21D;68776;44.762;37.698;2023-08-17T03:18:28;24.59;47.52
74873;HTU21D;68776;44.762;37.698;2023-08-17T03:19:29;24.63;47.96
74873;HTU21D;68776;44.762;37.698;2023-08-17T03:20:30;24.66;48.28
74873;HTU21D;68776;44.762;37.698;2023-08-17T03:21:32;24.72;48.53
74873;HTU21D;68776;44.762;37.698;2023-08-17T03:22:33;24.76;48.36
74873;HTU21D;68776;44.762;37.698;2023-08-17T03:23:34;24.80;48.21
74873;HTU21D;68776;44.762;37.698;2023-08-17T03:24:36;24.85;48.12
74873;HTU21D;68776;44.762;37.698;2023-08-17T03:25:37;24.87;48.02
74873;HTU21D;68776;44.762;37.698;2023-08-17T03:26:38;24.91;47.94
74873;HTU21D;68776;44.762;37.698;2023-08-17T03:27:42;24.94;47.86
74873;HTU21D;68776;44.762;37.698;2023-08-17T03:28:44;24.99;48.19
74873;HTU21D;68776;44.762;37.698;2023-08-17T03:29:45;25.00;48.47
74873;HTU21D;68776;44.762;37.698;2023-08-17T03:30:46;25.04;48.30
74873;HTU21D;68776;44.762;37.698;2023-08-17T03:31:47;25.07;48.19
74873;HTU21D;68776;44.762;37.698;2023-08-17T03:32:50;25.10;48.11
74873;HTU21D;68776;44.762;37.698;2023-08-17T03:33:51;25.14;47.89
74873;HTU21D;68776;44.762;37.698;2023-08-17T03:34:52;25.18;47.76
74873;HTU21D;68776;44.762;37.698;2023-08-17T03:35:53;25.22;47.69
74873;HTU21D;68776;44.762;37.698;2023-08-17T03:36:54;25.23;47.64
74873;HTU21D;68776;44.762;37.698;2023-08-17T03:37:55;25.27;47.58
74873;HTU21D;68776;44.762;37.698;2023-08-17T03:38:56;25.29;47.55
74873;HTU21D;68776;44.762;37.698;2023-08-17T03:39:57;25.31;47.53
74873;HTU21D;68776;44.762;37.698;2023-08-17T03:40:58;25.32;47.49
74873;HTU21D;68776;44.762;37.698;2023-08-17T03:42:00;25.35;47.44
74873;HTU21D;68776;44.762;37.698;2023-08-17T03:43:01;25.38;47.41
74873;HTU21D;68776;44.762;37.698;2023-08-17T03:44:03;25.42;47.36
74873;HTU21D;68776;44.762;37.698;2023-08-17T03:45:07;25.44;47.31
74873;HTU21D;68776;44.762;37.698;2023-08-17T03:46:08;25.45;47.28
74873;HTU21D;68776;44.762;37.698;2023-08-17T03:47:09;25.48;47.25
74873;HTU21D;68776;44.762;37.698;2023-08-17T03:48:10;25.50;47.22
74873;HTU21D;68776;44.762;37.698;2023-08-17T03:49:11;25.52;47.18
74873;HTU21D;68776;44.762;37.698;2023-08-17T03:50:12;25.54;47.16
74873;HTU21D;68776;44.762;37.698;2023-08-17T03:51:13;25.57;47.12
74873;HTU21D;68776;44.762;37.698;2023-08-17T03:52:14;25.59;47.09
74873;HTU21D;68776;44.762;37.698;2023-08-17T03:53:15;25.60;47.11
74873;HTU21D;68776;44.762;37.698;2023-08-17T03:54:17;25.63;47.09
74873;HTU21D;68776;44.762;37.698;2023-08-17T03:55:18;25.63;47.08
74873;HTU21D;68776;44.762;37.698;2023-08-17T03:56:19;25.66;47.05
74873;HTU21D;68776;44.762;37.698;2023-08-17T03:57:20;25.67;47.02
74873;HTU21D;68776;44.762;37.698;2023-08-17T03:58:21;25.69;47.00
74873;HTU21D;68776;44.762;37.698;2023-08-17T03:59:21;25.71;47.00
74873;HTU21D;68776;44.762;37.698;2023-08-17T04:00:22;25.73;46.97
74873;HTU21D;68776;44.762;37.698;2023-08-17T04:01:30;25.76;47.27
74873;HTU21D;68776;44.762;37.698;2023-08-17T04:02:31;25.78;47.51
74873;HTU21D;68776;44.762;37.698;2023-08-17T04:03:32;25.83;47.38
74873;HTU21D;68776;44.762;37.698;2023-08-17T04:04:33;25.86;47.30
74873;HTU21D;68776;44.762;37.698;2023-08-17T04:05:34;25.88;47.23
74873;HTU21D;68776;44.762;37.698;2023-08-17T04:06:35;25.90;47.18
74873;HTU21D;68776;44.762;37.698;2023-08-17T04:07:37;25.91;47.16
74873;HTU21D;68776;44.762;37.698;2023-08-17T04:08:38;25.93;47.14
74873;HTU21D;68776;44.762;37.698;2023-08-17T04:09:43;25.95;47.10
74873;HTU21D;68776;44.762;37.698;2023-08-17T04:10:45;25.97;47.28
74873;HTU21D;68776;44.762;37.698;2023-08-17T04:11:46;26.01;47.44
74873;HTU21D;68776;44.762;37.698;2023-08-17T04:12:47;26.04;47.31
74873;HTU21D;68776;44.762;37.698;2023-08-17T04:13:48;26.08;47.21
74873;HTU21D;68776;44.762;37.698;2023-08-17T04:14:49;26.11;47.28
74873;HTU21D;68776;44.762;37.698;2023-08-17T04:15:52;26.16;47.38
74873;HTU21D;68776;44.762;37.698;2023-08-17T04:16:53;26.21;47.44
74873;HTU21D;68776;44.762;37.698;2023-08-17T04:17:54;26.24;47.45
74873;HTU21D;68776;44.762;37.698;2023-08-17T04:18:55;26.28;47.30
74873;HTU21D;68776;44.762;37.698;2023-08-17T04:19:56;26.33;47.31
74873;HTU21D;68776;44.762;37.698;2023-08-17T04:20:57;26.37;47.15
74873;HTU21D;68776;44.762;37.698;2023-08-17T04:21:58;26.40;47.05
74873;HTU21D;68776;44.762;37.698;2023-08-17T04:22:59;26.42;46.96
74873;HTU21D;68776;44.762;37.698;2023-08-17T04:24:00;26.43;46.89
74873;HTU21D;68776;44.762;37.698;2023-08-17T04:25:01;26.46;46.81
74873;HTU21D;68776;44.762;37.698;2023-08-17T04:26:02;26.49;46.70
74873;HTU21D;68776;44.762;37.698;2023-08-17T04:27:04;26.51;46.61
74873;HTU21D;68776;44.762;37.698;2023-08-17T04:28:05;26.54;46.53
74873;HTU21D;68776;44.762;37.698;2023-08-17T04:29:08;26.57;46.44
74873;HTU21D;68776;44.762;37.698;2023-08-17T04:30:10;26.61;46.28
74873;HTU21D;68776;44.762;37.698;2023-08-17T04:31:21;26.67;46.15
74873;HTU21D;68776;44.762;37.698;2023-08-17T04:32:31;26.70;46.14
74873;HTU21D;68776;44.762;37.698;2023-08-17T04:33:32;26.77;46.13
74873;HTU21D;68776;44.762;37.698;2023-08-17T04:34:32;26.80;46.06
74873;HTU21D;68776;44.762;37.698;2023-08-17T04:35:34;26.86;45.94
74873;HTU21D;68776;44.762;37.698;2023-08-17T04:36:36;26.91;45.83
74873;HTU21D;68776;44.762;37.698;2023-08-17T04:37:38;26.95;45.73
74873;HTU21D;68776;44.762;37.698;2023-08-17T04:38:40;26.98;45.64
74873;HTU21D;68776;44.762;37.698;2023-08-17T04:39:40;27.02;45.53
74873;HTU21D;68776;44.762;37.698;2023-08-17T04:40:44;27.07;45.45
74873;HTU21D;68776;44.762;37.698;2023-08-17T04:41:45;27.10;45.38
74873;HTU21D;68776;44.762;37.698;2023-08-17T04:42:51;27.12;45.32
74873;HTU21D;68776;44.762;37.698;2023-08-17T04:43:52;27.16;45.25
74873;HTU21D;68776;44.762;37.698;2023-08-17T04:44:53;27.19;45.16
74873;HTU21D;68776;44.762;37.698;2023-08-17T04:45:54;27.23;45.12
74873;HTU21D;68776;44.762;37.698;2023-08-17T04:46:55;27.23;45.09
74873;HTU21D;68776;44.762;37.698;2023-08-17T04:47:56;27.24;45.06
74873;HTU21D;68776;44.762;37.698;2023-08-17T04:48:58;27.25;45.03
74873;HTU21D;68776;44.762;37.698;2023-08-17T04:49:59;27.27;45.02
74873;HTU21D;68776;44.762;37.698;2023-08-17T04:51:00;27.30;44.94
74873;HTU21D;68776;44.762;37.698;2023-08-17T04:52:00;27.34;44.90
74873;HTU21D;68776;44.762;37.698;2023-08-17T04:53:02;27.38;44.81
74873;HTU21D;68776;44.762;37.698;2023-08-17T04:54:03;27.41;44.76
74873;HTU21D;68776;44.762;37.698;2023-08-17T04:55:04;27.43;44.70
74873;HTU21D;68776;44.762;37.698;2023-08-17T04:56:06;27.44;44.69
74873;HTU21D;68776;44.762;37.698;2023-08-17T04:57:07;27.45;44.67
74873;HTU21D;68776;44.762;37.698;2023-08-17T04:58:08;27.45;44.70
74873;HTU21D;68776;44.762;37.698;2023-08-17T04:59:09;27.46;44.67
74873;HTU21D;68776;44.762;37.698;2023-08-17T05:00:11;27.49;44.65
74873;HTU21D;68776;44.762;37.698;2023-08-17T05:01:13;27.49;44.64
74873;HTU21D;68776;44.762;37.698;2023-08-17T05:02:14;27.51;44.64
74873;HTU21D;68776;44.762;37.698;2023-08-17T05:03:15;27.51;44.62
74873;HTU21D;68776;44.762;37.698;2023-08-17T05:04:17;27.53;44.63
74873;HTU21D;68776;44.762;37.698;2023-08-17T05:05:18;27.53;44.61
74873;HTU21D;68776;44.762;37.698;2023-08-17T05:06:19;27.54;44.59
74873;HTU21D;68776;44.762;37.698;2023-08-17T05:07:20;27.57;44.53
74873;HTU21D;68776;44.762;37.698;2023-08-17T05:08:21;27.59;44.51
74873;HTU21D;68776;44.762;37.698;2023-08-17T05:09:23;27.63;44.50
74873;HTU21D;68776;44.762;37.698;2023-08-17T05:10:24;27.64;44.45
74873;HTU21D;68776;44.762;37.698;2023-08-17T05:11:26;27.65;44.45
74873;HTU21D;68776;44.762;37.698;2023-08-17T05:12:27;27.66;44.43
74873;HTU21D;68776;44.762;37.698;2023-08-17T05:13:28;27.68;44.41
74873;HTU21D;68776;44.762;37.698;2023-08-17T05:14:33;27.70;44.36
74873;HTU21D;68776;44.762;37.698;2023-08-17T05:15:33;27.73;44.25
74873;HTU21D;68776;44.762;37.698;2023-08-17T05:16:37;27.78;44.16
74873;HTU21D;68776;44.762;37.698;2023-08-17T05:17:38;27.78;44.12
74873;HTU21D;68776;44.762;37.698;2023-08-17T05:18:39;27.82;44.06
74873;HTU21D;68776;44.762;37.698;2023-08-17T05:19:41;27.82;44.05
74873;HTU21D;68776;44.762;37.698;2023-08-17T05:20:43;27.83;44.08
74873;HTU21D;68776;44.762;37.698;2023-08-17T05:21:44;27.85;44.00
74873;HTU21D;68776;44.762;37.698;2023-08-17T05:22:46;27.90;43.87
74873;HTU21D;68776;44.762;37.698;2023-08-17T05:23:47;27.96;43.73
74873;HTU21D;68776;44.762;37.698;2023-08-17T05:24:47;27.97;43.68
74873;HTU21D;68776;44.762;37.698;2023-08-17T05:25:48;27.99;43.60
74873;HTU21D;68776;44.762;37.698;2023-08-17T05:26:49;27.98;43.62
74873;HTU21D;68776;44.762;37.698;2023-08-17T05:27:50;28.03;43.55
74873;HTU21D;68776;44.762;37.698;2023-08-17T05:28:51;28.09;43.54
74873;HTU21D;68776;44.762;37.698;2023-08-17T05:29:52;28.13;43.55
74873;HTU21D;68776;44.762;37.698;2023-08-17T05:30:53;28.19;43.50
74873;HTU21D;68776;44.762;37.698;2023-08-17T05:31:55;28.28;43.38
74873;HTU21D;68776;44.762;37.698;2023-08-17T05:32:56;28.33;43.31
74873;HTU21D;68776;44.762;37.698;2023-08-17T05:33:57;28.40;43.23
74873;HTU21D;68776;44.762;37.698;2023-08-17T05:34:59;28.45;43.15
74873;HTU21D;68776;44.762;37.698;2023-08-17T05:36:00;28.52;43.06
74873;HTU21D;68776;44.762;37.698;2023-08-17T05:37:01;28.57;42.96
74873;HTU21D;68776;44.762;37.698;2023-08-17T05:38:04;28.64;42.87
74873;HTU21D;68776;44.762;37.698;2023-08-17T05:39:05;28.71;42.77
74873;HTU21D;68776;44.762;37.698;2023-08-17T05:40:06;28.71;42.74
74873;HTU21D;68776;44.762;37.698;2023-08-17T05:41:09;28.73;42.70
74873;HTU21D;68776;44.762;37.698;2023-08-17T05:42:10;28.76;42.65
74873;HTU21D;68776;44.762;37.698;2023-08-17T05:43:11;28.83;42.54
74873;HTU21D;68776;44.762;37.698;2023-08-17T05:44:12;28.90;42.45
74873;HTU21D;68776;44.762;37.698;2023-08-17T05:45:15;28.94;42.36
74873;HTU21D;68776;44.762;37.698;2023-08-17T05:46:16;28.95;42.32
74873;HTU21D;68776;44.762;37.698;2023-08-17T05:47:17;29.02;42.27
74873;HTU21D;68776;44.762;37.698;2023-08-17T05:48:20;29.04;42.19
74873;HTU21D;68776;44.762;37.698;2023-08-17T05:49:21;29.08;42.15
74873;HTU21D;68776;44.762;37.698;2023-08-17T05:50:22;29.13;42.10
74873;HTU21D;68776;44.762;37.698;2023-08-17T05:51:23;29.18;41.97
74873;HTU21D;68776;44.762;37.698;2023-08-17T05:52:23;29.19;41.92
74873;HTU21D;68776;44.762;37.698;2023-08-17T05:53:24;29.22;41.91
74873;HTU21D;68776;44.762;37.698;2023-08-17T05:54:25;29.29;41.71
74873;HTU21D;68776;44.762;37.698;2023-08-17T05:55:26;29.32;41.70
74873;HTU21D;68776;44.762;37.698;2023-08-17T05:56:26;29.37;41.63
74873;HTU21D;68776;44.762;37.698;2023-08-17T05:57:28;29.42;41.56
74873;HTU21D;68776;44.762;37.698;2023-08-17T05:58:29;29.42;41.58
74873;HTU21D;68776;44.762;37.698;2023-08-17T05:59:31;29.46;41.55
74873;HTU21D;68776;44.762;37.698;2023-08-17T06:00:31;29.46;41.48
74873;HTU21D;68776;44.762;37.698;2023-08-17T06:01:32;29.48;41.52
74873;HTU21D;68776;44.762;37.698;2023-08-17T06:02:33;29.50;41.51
74873;HTU21D;68776;44.762;37.698;2023-08-17T06:03:34;29.56;41.41
74873;HTU21D;68776;44.762;37.698;2023-08-17T06:04:36;29.58;41.32
74873;HTU21D;68776;44.762;37.698;2023-08-17T06:05:36;29.61;41.35
74873;HTU21D;68776;44.762;37.698;2023-08-17T06:06:37;29.66;41.28
74873;HTU21D;68776;44.762;37.698;2023-08-17T06:07:38;29.72;41.16
74873;HTU21D;68776;44.762;37.698;2023-08-17T06:08:39;29.74;41.16
74873;HTU21D;68776;44.762;37.698;2023-08-17T06:09:40;29.74;41.13
74873;HTU21D;68776;44.762;37.698;2023-08-17T06:10:40;29.76;41.19
74873;HTU21D;68776;44.762;37.698;2023-08-17T06:11:41;29.79;41.14
74873;HTU21D;68776;44.762;37.698;2023-08-17T06:12:42;29.83;41.09
74873;HTU21D;68776;44.762;37.698;2023-08-17T06:13:43;29.89;41.01
74873;HTU21D;68776;44.762;37.698;2023-08-17T06:14:44;29.95;40.93
74873;HTU21D;68776;44.762;37.698;2023-08-17T06:15:44;29.96;40.89
74873;HTU21D;68776;44.762;37.698;2023-08-17T06:16:45;30.00;40.86
74873;HTU21D;68776;44.762;37.698;2023-08-17T06:17:46;30.03;40.84
74873;HTU21D;68776;44.762;37.698;2023-08-17T06:18:47;30.09;40.76
74873;HTU21D;68776;44.762;37.698;2023-08-17T06:19:48;30.07;40.70
74873;HTU21D;68776;44.762;37.698;2023-08-17T06:20:48;30.10;40.77
74873;HTU21D;68776;44.762;37.698;2023-08-17T06:21:52;30.11;40.72